Date,TemperatureHighF,TemperatureAvgF,TemperatureLowF,DewpointHighF,DewpointAvgF,DewpointLowF,HumidityHigh,HumidityAvg,HumidityLow,PressureMaxIn,PressureMinIn,WindSpeedMaxMPH,WindSpeedAvgMPH,GustSpeedMaxMPH,PrecipitationSumIn
2013-7-1,94.4,78.8,66.8,68.8,63.9,59.9,80,62,40,29.97,29.86,9,2,9,0.00
2013-7-2,86.5,74.7,62.8,64.0,59.5,53.6,83,61,34,30.04,29.97,13,4,13,0.00
2013-7-3,84.3,70.0,59.1,56.1,51.4,39.9,81,55,22,30.11,29.98,15,4,15,0.00
2013-7-4,75.5,63.8,51.7,54.5,51.8,48.9,91,67,47,30.12,30.00,13,3,13,0.00
2013-7-5,74.5,63.4,52.7,55.3,52.1,48.3,87,68,48,30.04,29.91,14,2,14,0.00
2013-7-6,78.0,63.6,50.9,58.7,53.8,48.3,93,72,47,29.96,29.82,10,2,10,0.00
2013-7-7,78.5,64.9,55.4,60.5,56.0,52.2,90,74,52,29.95,29.84,13,3,13,0.00
2013-7-8,81.5,66.8,54.1,60.0,54.9,50.6,89,68,42,30.07,29.95,13,4,13,0.00
2013-7-9,88.2,73.6,57.9,61.8,58.7,55.0,94,63,36,30.05,29.93,14,3,14,0.00
2013-7-10,80.0,67.0,56.7,57.4,53.3,46.6,83,63,39,30.04,29.90,13,4,13,0.00
2013-7-11,75.3,63.1,49.6,50.6,47.9,45.3,88,60,38,30.07,29.92,13,4,13,0.00
2013-7-12,73.2,61.8,47.1,53.2,49.0,43.9,91,64,44,30.08,29.98,13,3,13,0.00
2013-7-13,79.8,65.7,50.4,52.4,48.0,40.8,84,56,27,30.14,29.99,16,4,16,0.00
2013-7-14,86.0,70.8,53.0,54.2,49.8,41.6,87,52,22,30.07,29.92,13,3,13,0.00
2013-7-15,85.7,69.9,54.1,54.9,49.9,44.9,81,52,32,29.99,29.76,14,4,14,0.00
2013-7-16,92.0,75.2,62.1,58.6,53.1,45.9,73,48,22,29.95,29.73,14,4,14,0.00
2013-7-17,76.8,66.7,60.4,58.6,55.4,53.4,81,68,47,30.14,29.94,12,4,12,0.00
2013-7-18,81.3,67.8,56.4,59.8,55.6,50.1,89,68,35,30.18,30.03,12,4,12,0.00
2013-7-19,81.6,67.3,56.2,62.3,57.2,52.3,88,72,50,30.12,29.96,12,4,12,0.00
2013-7-20,81.3,65.1,56.3,61.7,56.4,53.0,94,75,49,30.07,29.90,12,3,12,0.00
2013-7-21,82.3,65.7,56.2,61.7,56.3,52.6,88,74,49,29.98,29.85,12,3,12,0.00
2013-7-22,81.5,67.2,56.8,61.0,56.4,53.0,89,71,42,30.03,29.92,12,4,12,0.00
2013-7-23,88.3,71.3,58.1,62.5,59.1,55.8,93,69,36,30.01,29.89,14,3,14,0.00
2013-7-24,89.7,73.3,57.4,60.5,56.7,49.9,87,60,28,30.01,29.92,14,3,14,0.00
2013-7-25,89.3,72.6,56.9,57.9,53.6,43.7,81,55,22,30.05,29.97,14,4,14,0.00
2013-7-26,89.0,71.8,57.6,56.1,51.7,42.6,79,52,26,30.13,30.01,13,4,13,0.00
2013-7-27,80.2,65.6,52.1,53.4,51.1,48.4,89,62,35,30.17,29.97,12,3,12,0.00
2013-7-28,74.3,61.2,50.8,55.4,51.4,47.8,91,71,50,30.05,29.94,14,3,14,0.00
2013-7-29,76.0,65.5,54.6,58.2,53.6,49.3,83,67,49,29.99,29.90,9,2,9,0.00
2013-7-30,81.0,66.9,54.8,59.3,55.8,51.9,91,70,41,30.11,29.99,12,2,12,0.00
2013-7-31,78.3,66.3,58.8,60.8,57.6,55.1,90,75,51,30.09,29.97,10,2,10,0.00